MSC Fortunate — 3FLG6 — position and weather

sailwx.info

Track history (hours):
 
Tides and Currents Weather Stations Pressure Air Temp Water Temp Dewpoint Dewpoint Depression Visibility Wind Speed Wind Dir Waves Ship Positions

MSC Fortunate

Last reported at 2014-Jul-26 12:34 UTC. Time now 2014-Jul-26 13:12 UTC.
Position N 49°28' E 000°08'.

Length 275 m; draft 12.9 m.

Type: Ship. MMSI: 356708000.

Date/timePositionNaut miles runAvg speedWind from/ knotsBaromVisibWave heightAir tempDewpointWater temp
2014-Jul-26 12:34N 49°28' E 000°08'0 0.0
2014-Jul-26 11:28N 49°28' E 000°08'0 0.0
2014-Jul-26 10:33N 49°28' E 000°08'0 0.2
2014-Jul-26 09:34N 49°28' E 000°08'9 9.3
2014-Jul-26 08:33N 49°31' W 000°05'9 9.4
2014-Jul-26 07:33N 49°35' W 000°18'1312.8
2014-Jul-26 06:33N 49°48' W 000°22'4914.8
2014-Jul-26 03:14N 50°31' E 000°16'1419.9
2014-Jul-26 02:33N 50°35' E 000°36'1919.1
2014-Jul-26 01:33N 50°46' E 001°01'1817.6
2014-Jul-26 00:33N 50°58' E 001°22'1615.9
2014-Jul-25 23:33N 51°09' E 001°40'1716.8
2014-Jul-25 22:34N 51°22' E 001°57'1615.8
2014-Jul-25 21:33N 51°22' E 002°22'1616.4
2014-Jul-25 20:33N 51°25' E 002°48'1716.8
2014-Jul-25 19:33N 51°25' E 003°15'1515.5
2014-Jul-25 18:34N 51°27' E 003°39'1211.7
2014-Jul-25 17:34N 51°25' E 003°58'1111.1
2014-Jul-25 16:34N 51°21' E 004°15'4 3.7
2014-Jul-25 15:33N 51°17' E 004°16'0 0.0
2014-Jul-25 14:33N 51°17' E 004°16'0 0.0
2014-Jul-25 13:33N 51°17' E 004°16'0 0.0
2014-Jul-25 12:33N 51°17' E 004°16'0 0.0
2014-Jul-25 11:33N 51°17' E 004°16'0 0.0
2014-Jul-25 10:33N 51°17' E 004°16'0 0.0
2014-Jul-25 09:33N 51°18' E 004°16'0 0.0
2014-Jul-25 08:33N 51°17' E 004°16'0 0.0
2014-Jul-25 07:33N 51°17' E 004°16'0 0.0
2014-Jul-25 06:33N 51°17' E 004°16'0 0.0
2014-Jul-25 05:33N 51°17' E 004°16'0 0.0
2014-Jul-25 04:33N 51°17' E 004°16'0 0.0
2014-Jul-25 03:33N 51°17' E 004°16'3 2.5
2014-Jul-25 02:34N 51°20' E 004°16'1 1.0
2014-Jul-25 01:34N 51°21' E 004°17'1 0.7
2014-Jul-25 00:34N 51°20' E 004°18'2 1.6
2014-Jul-24 23:31N 51°20' E 004°20'0 0.0
2014-Jul-24 22:31N 51°20' E 004°20'0 0.0
2014-Jul-24 21:31N 51°20' E 004°20'0 0.0
2014-Jul-24 20:31N 51°20' E 004°20'0 0.0
2014-Jul-24 19:31N 51°20' E 004°20'0 0.0
2014-Jul-24 18:31N 51°20' E 004°20'0 0.0
2014-Jul-24 17:28N 51°20' E 004°20'0 0.0
2014-Jul-24 16:31N 51°20' E 004°20'0 0.0
2014-Jul-24 15:31N 51°20' E 004°20'0 0.0
2014-Jul-24 14:31N 51°20' E 004°20'0 0.0
2014-Jul-24 13:31N 51°20' E 004°20'0 0.0
2014-Jul-24 12:31N 51°20' E 004°20'0 0.0
2014-Jul-24 11:31N 51°20' E 004°20'0 0.0
2014-Jul-24 10:31N 51°20' E 004°20'0 0.0
2014-Jul-24 09:28N 51°20' E 004°20'0 0.0
2014-Jul-24 08:31N 51°20' E 004°20'0 0.0
2014-Jul-24 07:31N 51°20' E 004°20'0 0.0
2014-Jul-24 06:31N 51°20' E 004°20'0 0.1
2014-Jul-24 05:34N 51°20' E 004°20'2 2.3
2014-Jul-24 04:34N 51°21' E 004°17'1 1.1
2014-Jul-24 03:34N 51°21' E 004°15'8 8.2
2014-Jul-24 02:34N 51°23' E 004°03'8 7.7
2014-Jul-24 01:34N 51°21' E 003°51'1211.6
2014-Jul-24 00:33N 51°26' E 003°34'1313.3
2014-Jul-23 23:33N 51°24' E 003°13'8 7.7
2014-Jul-23 22:33N 51°30' E 003°05'1414.0
2014-Jul-23 21:34N 51°43' E 003°13'1414.1
2014-Jul-23 20:33N 51°57' E 003°19'2120.8
2014-Jul-23 19:33N 52°17' E 003°24'2121.0
2014-Jul-23 18:33N 52°38' E 003°32'2121.0
2014-Jul-23 17:33N 52°54' E 003°54'2020.0
2014-Jul-23 16:33N 53°07' E 004°19'1918.8
2014-Jul-23 15:33N 53°24' E 004°34'1818.0
2014-Jul-23 14:33N 53°33' E 005°01'2019.7
2014-Jul-23 13:33N 53°39' E 005°32'2120.8
2014-Jul-23 12:33N 53°46' E 006°05'2121.1
2014-Jul-23 11:33N 53°52' E 006°39'2120.8
2014-Jul-23 10:33N 53°58' E 007°13'2020.3
2014-Jul-23 09:33N 54°01' E 007°47'1717.4
2014-Jul-23 08:33N 54°00' E 008°17'1515.1
2014-Jul-23 07:34N 53°55' E 008°41'1211.7
2014-Jul-23 06:33N 53°51' E 008°60'1211.8
2014-Jul-23 05:33N 53°51' E 009°20'1515.5
2014-Jul-23 04:34N 53°37' E 009°33'1111.4
2014-Jul-23 03:33N 53°33' E 009°50'3 2.5
2014-Jul-23 02:29N 53°32' E 009°55'0 0.0
2014-Jul-23 01:29N 53°32' E 009°55'0 0.0
2014-Jul-23 00:32N 53°32' E 009°55'0 0.0
2014-Jul-22 23:32N 53°32' E 009°55'0 0.0
2014-Jul-22 22:32N 53°32' E 009°55'0 0.0
2014-Jul-22 21:32N 53°32' E 009°55'0 0.0
2014-Jul-22 20:29N 53°32' E 009°55'0 0.0
2014-Jul-22 19:29N 53°32' E 009°55'0 0.0
2014-Jul-22 18:32N 53°32' E 009°55'0 0.0
2014-Jul-22 17:32N 53°32' E 009°55'0 0.0
2014-Jul-22 16:32N 53°32' E 009°55'0 0.0
2014-Jul-22 15:29N 53°32' E 009°55'0 0.0
2014-Jul-22 14:32N 53°32' E 009°55'0 0.0
2014-Jul-22 13:29N 53°32' E 009°55'0 0.0
2014-Jul-22 12:29N 53°32' E 009°55'0 0.0
2014-Jul-22 11:32N 53°32' E 009°55'0 0.0
2014-Jul-22 10:29N 53°32' E 009°55'0 0.0
2014-Jul-22 09:32N 53°32' E 009°55'0 0.0
2014-Jul-22 08:32N 53°32' E 009°55'0 0.0
2014-Jul-22 07:32N 53°32' E 009°55'0 0.0
2014-Jul-22 06:29N 53°32' E 009°55'0 0.0
2014-Jul-22 05:23N 53°32' E 009°55'0 0.0
2014-Jul-22 04:32N 53°32' E 009°55'0 0.0
2014-Jul-22 03:29N 53°32' E 009°55'0 0.0
2014-Jul-22 02:32N 53°32' E 009°55'0 0.0
2014-Jul-22 01:32N 53°32' E 009°55'0 0.0
2014-Jul-22 00:30N 53°32' E 009°55'3 3.6
2014-Jul-21 23:34N 53°33' E 009°49'9 8.8
2014-Jul-21 22:33N 53°36' E 009°35'1211.8
2014-Jul-21 21:33N 53°46' E 009°24'1212.3
2014-Jul-21 20:33N 53°53' E 009°06'415.8
2014-Jul-21 20:18N 53°51' E 009°00'1115.0
2014-Jul-21 19:33N 53°54' E 008°42'1615.5
2014-Jul-21 18:33N 53°59' E 008°17'1716.5
2014-Jul-21 17:33N 53°58' E 007°49'2019.6
2014-Jul-21 16:33N 53°53' E 007°17'2020.0
2014-Jul-21 15:32N 53°49' E 006°43'2020.1
2014-Jul-21 14:33N 53°44' E 006°11'2020.2
2014-Jul-21 13:33N 53°37' E 005°38'2020.3
2014-Jul-21 12:33N 53°31' E 005°06'2020.0
2014-Jul-21 11:33N 53°19' E 004°39'2120.5
2014-Jul-21 10:33N 53°01' E 004°23'2020.1
2014-Jul-21 09:33N 52°44' E 004°07'1919.6
2014-Jul-21 08:34N 52°26' E 003°53'1919.3
2014-Jul-21 07:33N 52°07' E 003°55'1110.8
2014-Jul-21 06:33N 51°58' E 004°05'1 0.9
2014-Jul-21 05:32N 51°58' E 004°04'0 0.0
2014-Jul-21 04:29N 51°58' E 004°04'0 0.0
2014-Jul-21 03:32N 51°58' E 004°04'0 0.0
2014-Jul-21 02:32N 51°58' E 004°04'0 0.0
2014-Jul-21 01:32N 51°58' E 004°04'0 0.0
2014-Jul-21 00:32N 51°58' E 004°04'0 0.0
2014-Jul-20 23:29N 51°58' E 004°04'0 0.0
2014-Jul-20 22:29N 51°58' E 004°04'0 0.0
2014-Jul-20 21:29N 51°58' E 004°04'0 0.0
2014-Jul-20 20:32N 51°58' E 004°04'0 0.0
2014-Jul-20 19:32N 51°58' E 004°04'0 0.0
2014-Jul-20 18:32N 51°58' E 004°04'0 0.0
2014-Jul-20 17:32N 51°58' E 004°04'0 0.0
2014-Jul-20 16:32N 51°58' E 004°04'0 0.0
2014-Jul-20 15:32N 51°58' E 004°04'0 0.0
2014-Jul-20 14:33N 51°58' E 004°04'4 3.9
2014-Jul-20 13:34N 51°60' E 003°59'8 8.3
2014-Jul-20 12:33N 51°60' E 003°45'8 7.3
2014-Jul-20 11:28N 51°56' E 003°34'1 1.2
2014-Jul-20 10:33N 51°56' E 003°33'10 9.9
2014-Jul-20 09:33N 51°55' E 003°16'2220.0
2014-Jul-20 08:26N 51°54' E 002°40'1820.6
2014-Jul-20 07:34N 51°53' E 002°11'1918.8
2014-Jul-20 06:33N 51°50' E 001°41'1312.5
2014-Jul-20 05:33N 51°56' E 001°23'4 3.5
2014-Jul-20 04:33N 51°57' E 001°18'0 0.0
2014-Jul-20 03:33N 51°57' E 001°18'0 0.0
2014-Jul-20 02:33N 51°57' E 001°18'0 0.0
2014-Jul-20 01:33N 51°57' E 001°18'0 0.0
2014-Jul-20 00:33N 51°57' E 001°18'0 0.0
2014-Jul-19 23:33N 51°57' E 001°18'0 0.0
2014-Jul-19 22:33N 51°57' E 001°18'0 0.0
2014-Jul-19 21:33N 51°57' E 001°18'0 0.0
2014-Jul-19 20:33N 51°57' E 001°18'0 0.0
2014-Jul-19 19:33N 51°57' E 001°18'0 0.0
2014-Jul-19 18:33N 51°57' E 001°18'0 0.0
2014-Jul-19 17:33N 51°57' E 001°18'0 0.0
2014-Jul-19 16:33N 51°57' E 001°18'0 0.0
2014-Jul-19 15:33N 51°57' E 001°18'0 0.0
2014-Jul-19 14:33N 51°57' E 001°18'0 0.0
2014-Jul-19 13:33N 51°57' E 001°18'0 0.0
2014-Jul-19 12:33N 51°57' E 001°18'0 0.0
2014-Jul-19 11:33N 51°57' E 001°18'0 0.0
2014-Jul-19 10:33N 51°57' E 001°18'0 0.0
2014-Jul-19 09:33N 51°57' E 001°18'0 0.0
2014-Jul-19 08:33N 51°57' E 001°18'0 0.0
2014-Jul-19 07:33N 51°57' E 001°18'0 0.0
2014-Jul-19 06:33N 51°57' E 001°18'0 0.0
2014-Jul-19 05:33N 51°57' E 001°18'0 0.0
2014-Jul-19 04:33N 51°57' E 001°18'0 0.0
2014-Jul-19 03:33N 51°57' E 001°18'0 0.0
2014-Jul-19 02:33N 51°57' E 001°18'0 0.0
2014-Jul-19 01:33N 51°57' E 001°18'1 0.7
2014-Jul-19 00:33N 51°57' E 001°18'10 9.8
2014-Jul-18 23:33N 51°54' E 001°34'6 5.8
2014-Jul-18 22:33N 51°52' E 001°42'2 2.1
2014-Jul-18 21:33N 51°53' E 001°40'0 0.1
2014-Jul-18 20:33N 51°53' E 001°40'0 0.0
2014-Jul-18 19:33N 51°53' E 001°40'0 0.0
2014-Jul-18 18:33N 51°53' E 001°40'0 0.1
2014-Jul-18 17:33N 51°53' E 001°40'7 6.7
2014-Jul-18 16:33N 51°49' E 001°47'1716.9
2014-Jul-18 15:33N 51°32' E 001°53'1515.4
2014-Jul-18 14:33N 51°17' E 001°53'1918.9
2014-Jul-18 13:33N 51°02' E 001°35'1817.7
2014-Jul-18 12:33N 50°46' E 001°22'1818.3
2014-Jul-18 11:33N 50°32' E 001°03'1919.1
2014-Jul-18 10:33N 50°26' E 000°35'1919.4
2014-Jul-18 09:33N 50°20' E 000°06'2618.7
2014-Jul-18 08:10N 50°14' W 000°33'1117.9
2014-Jul-18 07:33N 50°11' W 000°50'1717.1
2014-Jul-18 06:33N 50°06' W 001°15'1716.5
2014-Jul-18 05:30N 50°01' W 001°41'1816.6
2014-Jul-18 04:25N 49°56' W 002°08'72118.8
2014-Jul-16 14:08N 39°15' W 009°52'1219.6
2014-Jul-16 13:32N 39°04' W 009°52'  
Track history (hours):
 
Tides and Currents Weather Stations Pressure Air Temp Water Temp Dewpoint Dewpoint Depression Visibility Wind Speed Wind Dir Waves Ship Positions

MSC Fortunate

Last reported at 2014-Jul-26 12:34 UTC. Time now 2014-Jul-26 13:12 UTC.
Position N 49°28' E 000°08'.

Length 275 m; draft 12.9 m.

Type: Ship. MMSI: 356708000.

Date/timePositionNaut miles runAvg speedWind from/ knotsBaromVisibWave heightAir tempDewpointWater temp
2014-Jul-26 12:34N 49°28' E 000°08'0 0.0
2014-Jul-26 11:28N 49°28' E 000°08'0 0.0
2014-Jul-26 10:33N 49°28' E 000°08'0 0.2
2014-Jul-26 09:34N 49°28' E 000°08'9 9.3
2014-Jul-26 08:33N 49°31' W 000°05'9 9.4
2014-Jul-26 07:33N 49°35' W 000°18'1312.8
2014-Jul-26 06:33N 49°48' W 000°22'4914.8
2014-Jul-26 03:14N 50°31' E 000°16'1419.9
2014-Jul-26 02:33N 50°35' E 000°36'1919.1
2014-Jul-26 01:33N 50°46' E 001°01'1817.6
2014-Jul-26 00:33N 50°58' E 001°22'1615.9
2014-Jul-25 23:33N 51°09' E 001°40'1716.8
2014-Jul-25 22:34N 51°22' E 001°57'1615.8
2014-Jul-25 21:33N 51°22' E 002°22'1616.4
2014-Jul-25 20:33N 51°25' E 002°48'1716.8
2014-Jul-25 19:33N 51°25' E 003°15'1515.5
2014-Jul-25 18:34N 51°27' E 003°39'1211.7
2014-Jul-25 17:34N 51°25' E 003°58'1111.1
2014-Jul-25 16:34N 51°21' E 004°15'4 3.7
2014-Jul-25 15:33N 51°17' E 004°16'0 0.0
2014-Jul-25 14:33N 51°17' E 004°16'0 0.0
2014-Jul-25 13:33N 51°17' E 004°16'0 0.0
2014-Jul-25 12:33N 51°17' E 004°16'0 0.0
2014-Jul-25 11:33N 51°17' E 004°16'0 0.0
2014-Jul-25 10:33N 51°17' E 004°16'0 0.0
2014-Jul-25 09:33N 51°18' E 004°16'0 0.0
2014-Jul-25 08:33N 51°17' E 004°16'0 0.0
2014-Jul-25 07:33N 51°17' E 004°16'0 0.0
2014-Jul-25 06:33N 51°17' E 004°16'0 0.0
2014-Jul-25 05:33N 51°17' E 004°16'0 0.0
2014-Jul-25 04:33N 51°17' E 004°16'0 0.0
2014-Jul-25 03:33N 51°17' E 004°16'3 2.5
2014-Jul-25 02:34N 51°20' E 004°16'1 1.0
2014-Jul-25 01:34N 51°21' E 004°17'1 0.7
2014-Jul-25 00:34N 51°20' E 004°18'2 1.6
2014-Jul-24 23:31N 51°20' E 004°20'0 0.0
2014-Jul-24 22:31N 51°20' E 004°20'0 0.0
2014-Jul-24 21:31N 51°20' E 004°20'0 0.0
2014-Jul-24 20:31N 51°20' E 004°20'0 0.0
2014-Jul-24 19:31N 51°20' E 004°20'0 0.0
2014-Jul-24 18:31N 51°20' E 004°20'0 0.0
2014-Jul-24 17:28N 51°20' E 004°20'0 0.0
2014-Jul-24 16:31N 51°20' E 004°20'0 0.0
2014-Jul-24 15:31N 51°20' E 004°20'0 0.0
2014-Jul-24 14:31N 51°20' E 004°20'0 0.0
2014-Jul-24 13:31N 51°20' E 004°20'0 0.0
2014-Jul-24 12:31N 51°20' E 004°20'0 0.0
2014-Jul-24 11:31N 51°20' E 004°20'0 0.0
2014-Jul-24 10:31N 51°20' E 004°20'0 0.0
2014-Jul-24 09:28N 51°20' E 004°20'0 0.0
2014-Jul-24 08:31N 51°20' E 004°20'0 0.0
2014-Jul-24 07:31N 51°20' E 004°20'0 0.0
2014-Jul-24 06:31N 51°20' E 004°20'0 0.1
2014-Jul-24 05:34N 51°20' E 004°20'2 2.3
2014-Jul-24 04:34N 51°21' E 004°17'1 1.1
2014-Jul-24 03:34N 51°21' E 004°15'8 8.2
2014-Jul-24 02:34N 51°23' E 004°03'8 7.7
2014-Jul-24 01:34N 51°21' E 003°51'1211.6
2014-Jul-24 00:33N 51°26' E 003°34'1313.3
2014-Jul-23 23:33N 51°24' E 003°13'8 7.7
2014-Jul-23 22:33N 51°30' E 003°05'1414.0
2014-Jul-23 21:34N 51°43' E 003°13'1414.1
2014-Jul-23 20:33N 51°57' E 003°19'2120.8
2014-Jul-23 19:33N 52°17' E 003°24'2121.0
2014-Jul-23 18:33N 52°38' E 003°32'2121.0
2014-Jul-23 17:33N 52°54' E 003°54'2020.0
2014-Jul-23 16:33N 53°07' E 004°19'1918.8
2014-Jul-23 15:33N 53°24' E 004°34'1818.0
2014-Jul-23 14:33N 53°33' E 005°01'2019.7
2014-Jul-23 13:33N 53°39' E 005°32'2120.8
2014-Jul-23 12:33N 53°46' E 006°05'2121.1
2014-Jul-23 11:33N 53°52' E 006°39'2120.8
2014-Jul-23 10:33N 53°58' E 007°13'2020.3
2014-Jul-23 09:33N 54°01' E 007°47'1717.4
2014-Jul-23 08:33N 54°00' E 008°17'1515.1
2014-Jul-23 07:34N 53°55' E 008°41'1211.7
2014-Jul-23 06:33N 53°51' E 008°60'1211.8
2014-Jul-23 05:33N 53°51' E 009°20'1515.5
2014-Jul-23 04:34N 53°37' E 009°33'1111.4
2014-Jul-23 03:33N 53°33' E 009°50'3 2.5
2014-Jul-23 02:29N 53°32' E 009°55'0 0.0
2014-Jul-23 01:29N 53°32' E 009°55'0 0.0
2014-Jul-23 00:32N 53°32' E 009°55'0 0.0
2014-Jul-22 23:32N 53°32' E 009°55'0 0.0
2014-Jul-22 22:32N 53°32' E 009°55'0 0.0
2014-Jul-22 21:32N 53°32' E 009°55'0 0.0
2014-Jul-22 20:29N 53°32' E 009°55'0 0.0
2014-Jul-22 19:29N 53°32' E 009°55'0 0.0
2014-Jul-22 18:32N 53°32' E 009°55'0 0.0
2014-Jul-22 17:32N 53°32' E 009°55'0 0.0
2014-Jul-22 16:32N 53°32' E 009°55'0 0.0
2014-Jul-22 15:29N 53°32' E 009°55'0 0.0
2014-Jul-22 14:32N 53°32' E 009°55'0 0.0
2014-Jul-22 13:29N 53°32' E 009°55'0 0.0
2014-Jul-22 12:29N 53°32' E 009°55'0 0.0
2014-Jul-22 11:32N 53°32' E 009°55'0 0.0
2014-Jul-22 10:29N 53°32' E 009°55'0 0.0
2014-Jul-22 09:32N 53°32' E 009°55'0 0.0
2014-Jul-22 08:32N 53°32' E 009°55'0 0.0
2014-Jul-22 07:32N 53°32' E 009°55'0 0.0
2014-Jul-22 06:29N 53°32' E 009°55'0 0.0
2014-Jul-22 05:23N 53°32' E 009°55'0 0.0
2014-Jul-22 04:32N 53°32' E 009°55'0 0.0
2014-Jul-22 03:29N 53°32' E 009°55'0 0.0
2014-Jul-22 02:32N 53°32' E 009°55'0 0.0
2014-Jul-22 01:32N 53°32' E 009°55'0 0.0
2014-Jul-22 00:30N 53°32' E 009°55'3 3.6
2014-Jul-21 23:34N 53°33' E 009°49'9 8.8
2014-Jul-21 22:33N 53°36' E 009°35'1211.8
2014-Jul-21 21:33N 53°46' E 009°24'1212.3
2014-Jul-21 20:33N 53°53' E 009°06'415.8
2014-Jul-21 20:18N 53°51' E 009°00'1115.0
2014-Jul-21 19:33N 53°54' E 008°42'1615.5
2014-Jul-21 18:33N 53°59' E 008°17'1716.5
2014-Jul-21 17:33N 53°58' E 007°49'2019.6
2014-Jul-21 16:33N 53°53' E 007°17'2020.0
2014-Jul-21 15:32N 53°49' E 006°43'2020.1
2014-Jul-21 14:33N 53°44' E 006°11'2020.2
2014-Jul-21 13:33N 53°37' E 005°38'2020.3
2014-Jul-21 12:33N 53°31' E 005°06'2020.0
2014-Jul-21 11:33N 53°19' E 004°39'2120.5
2014-Jul-21 10:33N 53°01' E 004°23'2020.1
2014-Jul-21 09:33N 52°44' E 004°07'1919.6
2014-Jul-21 08:34N 52°26' E 003°53'1919.3
2014-Jul-21 07:33N 52°07' E 003°55'1110.8
2014-Jul-21 06:33N 51°58' E 004°05'1 0.9
2014-Jul-21 05:32N 51°58' E 004°04'0 0.0
2014-Jul-21 04:29N 51°58' E 004°04'0 0.0
2014-Jul-21 03:32N 51°58' E 004°04'0 0.0
2014-Jul-21 02:32N 51°58' E 004°04'0 0.0
2014-Jul-21 01:32N 51°58' E 004°04'0 0.0
2014-Jul-21 00:32N 51°58' E 004°04'0 0.0
2014-Jul-20 23:29N 51°58' E 004°04'0 0.0
2014-Jul-20 22:29N 51°58' E 004°04'0 0.0
2014-Jul-20 21:29N 51°58' E 004°04'0 0.0
2014-Jul-20 20:32N 51°58' E 004°04'0 0.0
2014-Jul-20 19:32N 51°58' E 004°04'0 0.0
2014-Jul-20 18:32N 51°58' E 004°04'0 0.0
2014-Jul-20 17:32N 51°58' E 004°04'0 0.0
2014-Jul-20 16:32N 51°58' E 004°04'0 0.0
2014-Jul-20 15:32N 51°58' E 004°04'0 0.0
2014-Jul-20 14:33N 51°58' E 004°04'4 3.9
2014-Jul-20 13:34N 51°60' E 003°59'8 8.3
2014-Jul-20 12:33N 51°60' E 003°45'8 7.3
2014-Jul-20 11:28N 51°56' E 003°34'1 1.2
2014-Jul-20 10:33N 51°56' E 003°33'10 9.9
2014-Jul-20 09:33N 51°55' E 003°16'2220.0
2014-Jul-20 08:26N 51°54' E 002°40'1820.6
2014-Jul-20 07:34N 51°53' E 002°11'1918.8
2014-Jul-20 06:33N 51°50' E 001°41'1312.5
2014-Jul-20 05:33N 51°56' E 001°23'4 3.5
2014-Jul-20 04:33N 51°57' E 001°18'0 0.0
2014-Jul-20 03:33N 51°57' E 001°18'0 0.0
2014-Jul-20 02:33N 51°57' E 001°18'0 0.0
2014-Jul-20 01:33N 51°57' E 001°18'0 0.0
2014-Jul-20 00:33N 51°57' E 001°18'0 0.0
2014-Jul-19 23:33N 51°57' E 001°18'0 0.0
2014-Jul-19 22:33N 51°57' E 001°18'0 0.0
2014-Jul-19 21:33N 51°57' E 001°18'0 0.0
2014-Jul-19 20:33N 51°57' E 001°18'0 0.0
2014-Jul-19 19:33N 51°57' E 001°18'0 0.0
2014-Jul-19 18:33N 51°57' E 001°18'0 0.0
2014-Jul-19 17:33N 51°57' E 001°18'0 0.0
2014-Jul-19 16:33N 51°57' E 001°18'0 0.0
2014-Jul-19 15:33N 51°57' E 001°18'0 0.0
2014-Jul-19 14:33N 51°57' E 001°18'0 0.0
2014-Jul-19 13:33N 51°57' E 001°18'0 0.0
2014-Jul-19 12:33N 51°57' E 001°18'0 0.0
2014-Jul-19 11:33N 51°57' E 001°18'0 0.0
2014-Jul-19 10:33N 51°57' E 001°18'0 0.0
2014-Jul-19 09:33N 51°57' E 001°18'0 0.0
2014-Jul-19 08:33N 51°57' E 001°18'0 0.0
2014-Jul-19 07:33N 51°57' E 001°18'0 0.0
2014-Jul-19 06:33N 51°57' E 001°18'0 0.0
2014-Jul-19 05:33N 51°57' E 001°18'0 0.0
2014-Jul-19 04:33N 51°57' E 001°18'0 0.0
2014-Jul-19 03:33N 51°57' E 001°18'0 0.0
2014-Jul-19 02:33N 51°57' E 001°18'0 0.0
2014-Jul-19 01:33N 51°57' E 001°18'1 0.7
2014-Jul-19 00:33N 51°57' E 001°18'10 9.8
2014-Jul-18 23:33N 51°54' E 001°34'6 5.8
2014-Jul-18 22:33N 51°52' E 001°42'2 2.1
2014-Jul-18 21:33N 51°53' E 001°40'0 0.1
2014-Jul-18 20:33N 51°53' E 001°40'0 0.0
2014-Jul-18 19:33N 51°53' E 001°40'0 0.0
2014-Jul-18 18:33N 51°53' E 001°40'0 0.1
2014-Jul-18 17:33N 51°53' E 001°40'7 6.7
2014-Jul-18 16:33N 51°49' E 001°47'1716.9
2014-Jul-18 15:33N 51°32' E 001°53'1515.4
2014-Jul-18 14:33N 51°17' E 001°53'1918.9
2014-Jul-18 13:33N 51°02' E 001°35'1817.7
2014-Jul-18 12:33N 50°46' E 001°22'1818.3
2014-Jul-18 11:33N 50°32' E 001°03'1919.1
2014-Jul-18 10:33N 50°26' E 000°35'1919.4
2014-Jul-18 09:33N 50°20' E 000°06'2618.7
2014-Jul-18 08:10N 50°14' W 000°33'1117.9
2014-Jul-18 07:33N 50°11' W 000°50'1717.1
2014-Jul-18 06:33N 50°06' W 001°15'1716.5
2014-Jul-18 05:30N 50°01' W 001°41'1816.6
2014-Jul-18 04:25N 49°56' W 002°08'72118.8
2014-Jul-16 14:08N 39°15' W 009°52'1219.6
2014-Jul-16 13:32N 39°04' W 009°52'  

Dump ship's entire track history